createdAt,value
2023-04-20T00:01:55.784Z,8.36
2023-04-20T00:04:00.039Z,8.36
2023-04-20T00:06:06.268Z,8.36
2023-04-20T00:08:11.097Z,8.35
2023-04-20T00:10:16.105Z,8.33
2023-04-20T00:12:19.766Z,8.31
2023-04-20T00:14:24.993Z,8.32
2023-04-20T00:16:29.798Z,8.29
2023-04-20T00:18:34.185Z,8.28
2023-04-20T00:20:38.832Z,8.25
2023-04-20T00:22:46.512Z,8.23
2023-04-20T00:24:50.845Z,8.19
2023-04-20T00:26:55.780Z,8.18
2023-04-20T00:29:00.151Z,8.13
2023-04-20T00:31:05.165Z,8.11
2023-04-20T00:33:10.733Z,8.07
2023-04-20T00:35:17.044Z,8.03
2023-04-20T00:37:23.170Z,8.00
2023-04-20T00:39:29.369Z,7.97
2023-04-20T00:41:35.391Z,7.93
2023-04-20T00:43:39.643Z,7.92
2023-04-20T00:45:45.237Z,7.88
2023-04-20T00:47:49.581Z,7.85
2023-04-20T00:49:54.571Z,7.83
2023-04-20T00:51:59.160Z,7.83
2023-04-20T00:54:05.388Z,7.81
2023-04-20T00:56:12.915Z,7.81
2023-04-20T00:58:18.217Z,7.80
2023-04-20T01:00:22.706Z,7.77
2023-04-20T01:02:28.517Z,7.76
2023-04-20T01:04:33.271Z,7.74
2023-04-20T01:06:37.534Z,7.71
2023-04-20T01:08:49.805Z,7.70
2023-04-20T01:10:54.367Z,7.70
2023-04-20T01:13:00.453Z,7.69
2023-04-20T01:15:07.461Z,7.66
2023-04-20T01:17:13.882Z,7.65
2023-04-20T01:19:23.241Z,7.62
2023-04-20T01:21:27.477Z,7.59
2023-04-20T01:23:36.680Z,7.56
2023-04-20T01:25:42.044Z,7.54
2023-04-20T01:27:46.600Z,7.53
2023-04-20T01:29:51.121Z,7.48
2023-04-20T01:31:55.426Z,7.47
2023-04-20T01:34:00.268Z,7.45
2023-04-20T01:36:04.992Z,7.44
2023-04-20T01:38:09.518Z,7.42
2023-04-20T01:40:16.438Z,7.41
2023-04-20T01:42:21.260Z,7.41
2023-04-20T01:44:26.059Z,7.39
2023-04-20T01:46:30.523Z,7.40
2023-04-20T01:48:34.529Z,7.39
2023-04-20T01:50:38.232Z,7.39
2023-04-20T01:52:41.813Z,7.38
2023-04-20T01:54:47.259Z,7.38
2023-04-20T01:56:52.419Z,7.38
2023-04-20T01:58:56.074Z,7.37
2023-04-20T02:00:59.828Z,7.37
2023-04-20T02:03:03.817Z,7.36
2023-04-20T02:05:08.103Z,7.33
2023-04-20T02:07:11.780Z,7.31
2023-04-20T02:09:16.051Z,7.30
2023-04-20T02:11:19.926Z,7.30
2023-04-20T02:13:25.080Z,7.26
2023-04-20T02:15:28.681Z,7.25
2023-04-20T02:17:32.928Z,7.24
2023-04-20T02:19:36.543Z,7.27
2023-04-20T02:21:40.297Z,7.25
2023-04-20T02:23:43.864Z,7.26
2023-04-20T02:25:47.494Z,7.27
2023-04-20T02:27:51.235Z,7.25
2023-04-20T02:29:56.449Z,7.24
2023-04-20T02:31:59.887Z,7.23
2023-04-20T02:34:06.249Z,7.23
2023-04-20T02:36:10.412Z,7.23
2023-04-20T02:38:16.859Z,7.24
2023-04-20T02:40:20.371Z,7.24
2023-04-20T02:42:24.072Z,7.25
2023-04-20T02:44:28.147Z,7.24
2023-04-20T02:46:33.152Z,7.24
2023-04-20T02:48:37.041Z,7.22
2023-04-20T02:50:40.724Z,7.21
2023-04-20T02:52:52.982Z,7.19
2023-04-20T02:54:56.684Z,7.17
2023-04-20T02:57:01.013Z,7.18
2023-04-20T02:59:06.016Z,7.18
2023-04-20T03:01:36.985Z,7.17
2023-04-20T03:03:47.785Z,7.16
2023-04-20T03:05:51.735Z,7.15
2023-04-20T03:07:55.740Z,7.16
2023-04-20T03:10:00.749Z,7.14
2023-04-20T03:12:31.853Z,7.11
2023-04-20T03:14:54.201Z,7.10
2023-04-20T03:17:04.669Z,7.09
2023-04-20T03:19:08.695Z,7.08
2023-04-20T03:21:12.654Z,7.07
2023-04-20T03:23:16.154Z,7.07
2023-04-20T03:25:20.092Z,7.07
2023-04-20T03:27:34.120Z,7.06
2023-04-20T03:29:44.454Z,7.04
2023-04-20T03:31:48.370Z,7.03
2023-04-20T03:33:53.573Z,7.02
2023-04-20T03:35:56.991Z,7.01
2023-04-20T03:38:00.693Z,6.99
2023-04-20T03:40:04.448Z,6.99
2023-04-20T03:42:08.270Z,6.97
2023-04-20T03:44:11.716Z,6.94
2023-04-20T03:46:15.270Z,6.94
2023-04-20T03:48:18.975Z,6.92
2023-04-20T03:50:26.512Z,6.90
2023-04-20T03:52:30.056Z,6.89
2023-04-20T03:54:34.841Z,6.87
2023-04-20T03:56:38.590Z,6.87
2023-04-20T03:58:42.097Z,6.86
2023-04-20T04:00:50.083Z,6.86
2023-04-20T04:02:54.412Z,6.87
2023-04-20T04:05:03.659Z,6.86
2023-04-20T04:07:09.084Z,6.84
2023-04-20T04:09:17.002Z,6.81
2023-04-20T04:11:22.375Z,6.78
2023-04-20T04:13:26.211Z,6.76
2023-04-20T04:15:30.044Z,6.73
2023-04-20T04:17:39.050Z,6.72
2023-04-20T04:19:43.758Z,6.69
2023-04-20T04:21:47.402Z,6.69
2023-04-20T04:23:53.554Z,6.69
2023-04-20T04:26:07.628Z,6.68
2023-04-20T04:28:18.091Z,6.67
2023-04-20T04:30:31.602Z,6.68
2023-04-20T04:32:36.723Z,6.67
2023-04-20T04:34:44.691Z,6.67
2023-04-20T04:36:49.317Z,6.66
2023-04-20T04:38:58.781Z,6.65
2023-04-20T04:41:04.032Z,6.63
2023-04-20T04:43:10.340Z,6.63
2023-04-20T04:45:18.547Z,6.62
2023-04-20T04:47:23.044Z,6.61
2023-04-20T04:49:29.402Z,6.60
2023-04-20T04:51:33.522Z,6.59
2023-04-20T04:53:37.145Z,6.59
2023-04-20T04:55:42.128Z,6.58
2023-04-20T04:57:45.645Z,6.57
2023-04-20T04:59:49.164Z,6.56
2023-04-20T05:01:52.784Z,6.55
2023-04-20T05:03:56.292Z,6.56
2023-04-20T05:05:59.848Z,6.55
2023-04-20T05:08:03.515Z,6.56
2023-04-20T05:10:08.655Z,6.55
2023-04-20T05:12:13.674Z,6.56
2023-04-20T05:14:17.065Z,6.58
2023-04-20T05:16:20.905Z,6.58
2023-04-20T05:18:25.185Z,6.60
2023-04-20T05:20:29.237Z,6.63
2023-04-20T05:22:33.443Z,6.63
2023-04-20T05:24:37.338Z,6.62
2023-04-20T05:26:41.036Z,6.63
2023-04-20T05:28:46.759Z,6.64
2023-04-20T05:30:51.661Z,6.64
2023-04-20T05:32:56.626Z,6.65
2023-04-20T05:35:01.819Z,6.68
2023-04-20T05:37:06.703Z,6.68
2023-04-20T05:39:11.808Z,6.69
2023-04-20T05:41:15.023Z,6.67
2023-04-20T05:43:19.648Z,6.65
2023-04-20T05:45:26.775Z,6.64
2023-04-20T05:47:31.774Z,6.63
2023-04-20T05:49:36.698Z,6.65
2023-04-20T05:51:40.991Z,6.63
2023-04-20T05:53:46.278Z,6.66
2023-04-20T05:55:55.301Z,6.70
2023-04-20T05:57:59.073Z,6.73
2023-04-20T06:00:04.210Z,6.75
2023-04-20T06:02:18.972Z,6.78
2023-04-20T06:04:23.597Z,6.80
2023-04-20T06:06:28.483Z,6.83
2023-04-20T06:08:32.705Z,6.86
2023-04-20T06:10:36.523Z,6.91
2023-04-20T06:12:40.919Z,6.92
2023-04-20T06:14:44.757Z,6.98
2023-04-20T06:16:48.850Z,7.05
2023-04-20T06:18:54.306Z,7.33
2023-04-20T06:20:58.689Z,7.68
2023-04-20T06:23:03.055Z,8.01
2023-04-20T06:25:08.772Z,8.19
2023-04-20T06:27:13.478Z,8.43
2023-04-20T06:29:17.650Z,8.73
2023-04-20T06:31:23.126Z,8.89
2023-04-20T06:33:27.971Z,8.84
2023-04-20T06:35:34.618Z,8.88
2023-04-20T06:37:38.982Z,8.95
2023-04-20T06:39:50.594Z,9.24
2023-04-20T06:41:59.252Z,9.39
2023-04-20T06:44:07.145Z,9.48
2023-04-20T06:46:14.472Z,9.57
2023-04-20T06:48:31.472Z,9.64
2023-04-20T06:50:39.122Z,9.66
2023-04-20T06:52:43.631Z,9.59
2023-04-20T06:54:47.852Z,9.54
2023-04-20T06:56:51.916Z,9.42
2023-04-20T06:58:55.682Z,9.43
2023-04-20T07:00:59.350Z,9.66
2023-04-20T07:03:04.111Z,9.79
2023-04-20T07:05:08.141Z,10.04
2023-04-20T07:07:13.523Z,10.10
2023-04-20T07:09:19.753Z,10.03
2023-04-20T07:11:25.773Z,10.23
2023-04-20T07:13:33.836Z,10.54
2023-04-20T07:15:38.914Z,10.71
2023-04-20T07:17:43.048Z,10.72
2023-04-20T07:19:47.025Z,10.86
2023-04-20T07:21:51.226Z,10.66
2023-04-20T07:23:58.702Z,10.41
2023-04-20T07:26:02.692Z,10.37
2023-04-20T07:28:06.499Z,10.29
2023-04-20T07:30:11.598Z,10.44
2023-04-20T07:32:16.016Z,10.65
2023-04-20T07:34:20.113Z,10.62
2023-04-20T07:36:24.018Z,10.35
2023-04-20T07:38:27.785Z,10.15
2023-04-20T07:40:33.005Z,10.26
2023-04-20T07:42:37.958Z,10.42
2023-04-20T07:44:41.636Z,10.52
2023-04-20T07:46:45.536Z,10.55
2023-04-20T07:48:49.569Z,10.86
2023-04-20T07:50:53.376Z,10.80
2023-04-20T07:52:57.186Z,10.61
2023-04-20T07:55:01.121Z,10.68
2023-04-20T07:57:06.868Z,10.49
2023-04-20T07:59:10.829Z,10.31
2023-04-20T08:01:14.634Z,10.31
2023-04-20T08:03:18.786Z,10.26
2023-04-20T08:05:24.691Z,9.93
2023-04-20T08:07:28.701Z,9.81
2023-04-20T08:09:32.490Z,9.61
2023-04-20T08:11:36.771Z,9.66
2023-04-20T08:13:42.767Z,9.54
2023-04-20T08:15:46.859Z,9.35
2023-04-20T08:17:51.114Z,9.16
2023-04-20T08:19:55.508Z,9.08
2023-04-20T08:22:00.710Z,8.92
2023-04-20T08:24:06.862Z,8.98
2023-04-20T08:26:11.120Z,9.02
2023-04-20T08:28:24.286Z,9.03
2023-04-20T08:30:41.590Z,9.08
2023-04-20T08:32:45.318Z,9.05
2023-04-20T08:34:49.388Z,9.15
2023-04-20T08:36:53.299Z,9.21
2023-04-20T08:38:59.977Z,9.34
2023-04-20T08:41:03.928Z,9.39
2023-04-20T08:43:07.709Z,9.28
2023-04-20T08:45:11.666Z,9.27
2023-04-20T08:47:16.832Z,9.39
2023-04-20T08:49:21.864Z,9.40
2023-04-20T08:51:25.684Z,9.38
2023-04-20T08:53:29.378Z,9.41
2023-04-20T08:55:33.440Z,9.35
2023-04-20T08:57:37.922Z,9.34
2023-04-20T08:59:42.924Z,9.30
2023-04-20T09:01:47.194Z,9.29
2023-04-20T09:03:52.726Z,9.34
2023-04-20T09:05:56.520Z,9.32
2023-04-20T09:08:01.438Z,9.35
2023-04-20T09:10:05.382Z,9.46
2023-04-20T09:12:10.526Z,9.50
2023-04-20T09:14:18.636Z,9.55
2023-04-20T09:16:22.549Z,9.58
2023-04-20T09:18:26.269Z,9.64
2023-04-20T09:20:32.839Z,9.69
2023-04-20T09:22:38.158Z,9.58
2023-04-20T09:24:42.883Z,9.60
2023-04-20T09:26:47.339Z,9.80
2023-04-20T09:28:51.085Z,9.74
2023-04-20T09:30:54.747Z,9.95
2023-04-20T09:33:04.949Z,10.18
2023-04-20T09:35:09.464Z,10.25
2023-04-20T09:37:17.019Z,10.35
2023-04-20T09:39:22.959Z,10.57
2023-04-20T09:41:26.392Z,10.76
2023-04-20T09:43:31.732Z,10.74
2023-04-20T09:45:35.766Z,10.73
2023-04-20T09:47:42.015Z,10.90
2023-04-20T09:49:47.162Z,10.93
2023-04-20T09:51:51.114Z,10.72
2023-04-20T09:53:57.204Z,10.71
2023-04-20T09:56:02.763Z,10.66
2023-04-20T09:58:06.875Z,10.78
2023-04-20T10:00:12.805Z,11.02
2023-04-20T10:02:16.646Z,10.98
2023-04-20T10:04:20.508Z,10.83
2023-04-20T10:06:25.500Z,10.90
2023-04-20T10:08:29.164Z,10.88
2023-04-20T10:10:45.449Z,10.81
2023-04-20T10:12:50.290Z,10.82
2023-04-20T10:14:57.314Z,10.65
2023-04-20T10:17:02.481Z,10.90
2023-04-20T10:19:08.956Z,11.13
2023-04-20T10:21:13.844Z,11.08
2023-04-20T10:23:19.739Z,11.04
2023-04-20T10:25:26.954Z,10.99
2023-04-20T10:27:32.663Z,10.97
2023-04-20T10:29:36.713Z,10.91
2023-04-20T10:31:41.910Z,11.01
2023-04-20T10:33:53.014Z,10.84
2023-04-20T10:35:59.154Z,10.80
2023-04-20T10:38:02.850Z,10.71
2023-04-20T10:40:08.139Z,10.80
2023-04-20T10:42:11.819Z,10.70
2023-04-20T10:44:17.800Z,10.69
2023-04-20T10:46:23.326Z,10.72
2023-04-20T10:48:27.139Z,10.71
2023-04-20T10:50:30.795Z,10.71
2023-04-20T10:52:36.267Z,10.63
2023-04-20T10:54:40.477Z,10.71
2023-04-20T10:56:45.878Z,10.66
2023-04-20T10:58:49.580Z,10.71
2023-04-20T11:01:02.472Z,10.78
2023-04-20T11:03:06.207Z,10.77
2023-04-20T11:05:13.761Z,10.92
2023-04-20T11:07:17.509Z,10.87
2023-04-20T11:09:22.949Z,10.71
2023-04-20T11:11:27.823Z,10.68
2023-04-20T11:13:33.151Z,10.58
2023-04-20T11:15:37.142Z,10.50
2023-04-20T11:17:42.257Z,10.39
2023-04-20T11:19:46.945Z,10.43
2023-04-20T11:21:51.086Z,10.26
2023-04-20T11:23:54.927Z,10.20
2023-04-20T11:25:59.264Z,10.16
2023-04-20T11:28:09.073Z,10.21
2023-04-20T11:30:13.321Z,10.25
2023-04-20T11:32:20.364Z,10.41
2023-04-20T11:34:26.016Z,10.40
2023-04-20T11:36:31.558Z,10.26
2023-04-20T11:38:36.598Z,10.10
2023-04-20T11:40:40.310Z,10.19
2023-04-20T11:42:44.086Z,10.45
2023-04-20T11:44:47.962Z,10.52
2023-04-20T11:46:53.578Z,10.52
2023-04-20T11:49:00.403Z,10.39
2023-04-20T11:51:05.958Z,10.43
2023-04-20T11:53:10.528Z,10.45
2023-04-20T11:55:14.133Z,10.47
2023-04-20T11:57:17.915Z,10.52
2023-04-20T11:59:21.996Z,10.62
2023-04-20T12:01:25.873Z,10.66
2023-04-20T12:03:29.740Z,10.66
2023-04-20T12:05:33.786Z,10.62
2023-04-20T12:07:38.918Z,10.60
2023-04-20T12:09:42.538Z,10.62
2023-04-20T12:11:46.103Z,10.53
2023-04-20T12:13:49.962Z,10.31
2023-04-20T12:15:53.834Z,10.39
2023-04-20T12:17:57.466Z,10.53
2023-04-20T12:20:01.324Z,10.64
2023-04-20T12:22:05.232Z,10.65
2023-04-20T12:24:10.590Z,10.72
2023-04-20T12:26:14.516Z,10.55
2023-04-20T12:28:18.215Z,10.53
2023-04-20T12:30:22.695Z,10.51
2023-04-20T12:32:27.147Z,10.45
2023-04-20T12:34:31.262Z,10.48
2023-04-20T12:36:36.752Z,10.55
2023-04-20T12:38:40.890Z,10.64
2023-04-20T12:40:46.726Z,10.64
2023-04-20T12:42:51.038Z,10.49
2023-04-20T12:44:56.424Z,10.39
2023-04-20T12:47:00.333Z,10.25
2023-04-20T12:49:04.758Z,10.19
2023-04-20T12:51:09.364Z,10.24
2023-04-20T12:53:13.690Z,10.23
2023-04-20T12:55:17.440Z,10.19
2023-04-20T12:57:22.587Z,10.24
2023-04-20T12:59:26.329Z,10.31
2023-04-20T13:01:29.940Z,10.27
2023-04-20T13:03:33.912Z,10.30
2023-04-20T13:05:37.916Z,10.44
2023-04-20T13:07:41.518Z,10.62
2023-04-20T13:09:46.151Z,10.54
2023-04-20T13:11:49.873Z,10.37
2023-04-20T13:13:56.696Z,10.19
2023-04-20T13:16:00.319Z,10.08
2023-04-20T13:18:04.405Z,10.12
2023-04-20T13:20:09.672Z,10.04
2023-04-20T13:22:16.179Z,10.02
2023-04-20T13:24:21.860Z,10.10
2023-04-20T13:26:25.754Z,10.19
2023-04-20T13:28:29.512Z,10.18
2023-04-20T13:30:34.851Z,10.14
2023-04-20T13:32:39.135Z,10.11
2023-04-20T13:34:42.936Z,10.05
2023-04-20T13:36:48.533Z,10.02
2023-04-20T13:38:53.784Z,9.94
2023-04-20T13:40:57.412Z,10.01
2023-04-20T13:43:01.165Z,10.14
2023-04-20T13:45:05.982Z,10.14
2023-04-20T13:47:11.582Z,10.04
2023-04-20T13:49:17.341Z,9.91
2023-04-20T13:51:23.100Z,9.81
2023-04-20T13:53:27.921Z,9.93
2023-04-20T13:55:31.963Z,9.88
2023-04-20T13:57:36.634Z,9.86
2023-04-20T13:59:40.667Z,9.81
2023-04-20T14:01:44.652Z,9.82
2023-04-20T14:03:51.982Z,9.93
2023-04-20T14:05:55.794Z,9.94
2023-04-20T14:08:01.779Z,9.92
2023-04-20T14:10:06.613Z,9.96
2023-04-20T14:12:10.499Z,9.94
2023-04-20T14:14:14.483Z,9.88
2023-04-20T14:16:18.514Z,9.89
2023-04-20T14:18:22.466Z,9.90
2023-04-20T14:20:28.081Z,9.99
2023-04-20T14:22:36.233Z,10.01
2023-04-20T14:24:40.923Z,10.05
2023-04-20T14:26:44.623Z,10.03
2023-04-20T14:28:48.358Z,10.01
2023-04-20T14:30:52.507Z,10.03
2023-04-20T14:32:57.479Z,10.05
2023-04-20T14:35:02.301Z,10.02
2023-04-20T14:37:09.934Z,10.07
2023-04-20T14:39:13.686Z,10.12
2023-04-20T14:41:18.277Z,10.14
2023-04-20T14:43:22.600Z,10.23
2023-04-20T14:45:26.536Z,10.21
2023-04-20T14:47:30.373Z,10.10
2023-04-20T14:49:34.248Z,10.07
2023-04-20T14:51:38.386Z,10.06
2023-04-20T14:53:43.821Z,10.01
2023-04-20T14:55:47.895Z,10.00
2023-04-20T14:57:52.139Z,10.08
2023-04-20T14:59:55.810Z,10.08
2023-04-20T15:02:03.024Z,10.13
2023-04-20T15:04:07.656Z,10.14
2023-04-20T15:06:11.675Z,10.14
2023-04-20T15:08:15.433Z,10.19
2023-04-20T15:10:21.082Z,10.19
2023-04-20T15:12:24.838Z,10.15
2023-04-20T15:14:28.581Z,10.18
2023-04-20T15:16:32.233Z,10.25
2023-04-20T15:18:36.121Z,10.28
2023-04-20T15:20:39.833Z,10.24
2023-04-20T15:22:43.708Z,10.24
2023-04-20T15:24:47.726Z,10.24
2023-04-20T15:26:52.805Z,10.32
2023-04-20T15:28:57.797Z,10.40
2023-04-20T15:31:01.234Z,10.34
2023-04-20T15:33:05.546Z,10.28
2023-04-20T15:35:09.931Z,10.32
2023-04-20T15:37:14.338Z,10.33
2023-04-20T15:39:18.369Z,10.34
2023-04-20T15:41:22.729Z,10.37
2023-04-20T15:43:27.955Z,10.37
2023-04-20T15:45:32.690Z,10.37
2023-04-20T15:47:36.484Z,10.39
2023-04-20T15:49:40.902Z,10.38
2023-04-20T15:51:44.615Z,10.43
2023-04-20T15:53:50.946Z,10.49
2023-04-20T15:55:54.699Z,10.54
2023-04-20T15:58:00.576Z,10.59
2023-04-20T16:00:06.626Z,10.61
2023-04-20T16:02:13.948Z,10.67
2023-04-20T16:04:18.291Z,10.69
2023-04-20T16:06:22.825Z,10.74
2023-04-20T16:08:26.514Z,10.66
2023-04-20T16:10:30.328Z,10.59
2023-04-20T16:12:34.523Z,10.61
2023-04-20T16:14:38.432Z,10.66
2023-04-20T16:16:46.339Z,10.69
2023-04-20T16:18:54.829Z,10.72
2023-04-20T16:20:59.333Z,10.69
2023-04-20T16:23:03.615Z,10.77
2023-04-20T16:25:09.773Z,10.81
2023-04-20T16:27:13.473Z,10.84
2023-04-20T16:29:17.590Z,10.83
2023-04-20T16:31:22.055Z,10.81
2023-04-20T16:33:27.795Z,10.73
2023-04-20T16:35:31.992Z,10.69
2023-04-20T16:37:36.524Z,10.75
2023-04-20T16:39:40.302Z,10.75
2023-04-20T16:41:44.710Z,10.78
2023-04-20T16:43:48.611Z,10.84
2023-04-20T16:45:52.595Z,10.83
2023-04-20T16:47:56.513Z,10.79
2023-04-20T16:50:01.861Z,10.71
2023-04-20T16:52:05.849Z,10.67
2023-04-20T16:54:10.726Z,10.66
2023-04-20T16:56:14.682Z,10.64
2023-04-20T16:58:18.697Z,10.68
2023-04-20T17:00:24.113Z,10.73
2023-04-20T17:02:33.109Z,10.73
2023-04-20T17:04:37.256Z,10.71
2023-04-20T17:06:42.527Z,10.65
2023-04-20T17:08:47.480Z,10.63
2023-04-20T17:10:54.598Z,10.60
2023-04-20T17:12:58.263Z,10.59
2023-04-20T17:15:02.977Z,10.56
2023-04-20T17:17:06.811Z,10.57
2023-04-20T17:19:11.349Z,10.60
2023-04-20T17:21:15.514Z,10.56
2023-04-20T17:23:21.308Z,10.56
2023-04-20T17:25:26.955Z,10.56
2023-04-20T17:27:31.248Z,10.61
2023-04-20T17:29:38.712Z,10.68
2023-04-20T17:31:43.808Z,10.62
2023-04-20T17:33:48.214Z,10.57
2023-04-20T17:35:52.147Z,10.55
2023-04-20T17:37:56.037Z,10.52
2023-04-20T17:40:01.823Z,10.53
2023-04-20T17:42:05.960Z,10.54
2023-04-20T17:44:12.126Z,10.54
2023-04-20T17:46:16.157Z,10.48
2023-04-20T17:48:20.011Z,10.49
2023-04-20T17:50:24.582Z,10.46
2023-04-20T17:52:28.254Z,10.44
2023-04-20T17:54:34.136Z,10.43
2023-04-20T17:56:40.357Z,10.41
2023-04-20T17:58:44.161Z,10.40
2023-04-20T18:00:48.449Z,10.42
2023-04-20T18:02:53.148Z,10.47
2023-04-20T18:04:59.866Z,10.50
2023-04-20T18:07:07.842Z,10.52
2023-04-20T18:09:14.572Z,10.50
2023-04-20T18:11:18.937Z,10.51
2023-04-20T18:13:24.672Z,10.55
2023-04-20T18:15:30.810Z,10.55
2023-04-20T18:17:34.959Z,10.55
2023-04-20T18:19:40.951Z,10.53
2023-04-20T18:21:44.771Z,10.52
2023-04-20T18:23:48.910Z,10.47
2023-04-20T18:25:53.713Z,10.45
2023-04-20T18:27:57.815Z,10.43
2023-04-20T18:30:03.399Z,10.39
2023-04-20T18:32:07.819Z,10.35
2023-04-20T18:34:13.171Z,10.34
2023-04-20T18:36:18.108Z,10.29
2023-04-20T18:38:22.416Z,10.25
2023-04-20T18:40:26.514Z,10.23
2023-04-20T18:42:30.772Z,10.23
2023-04-20T18:44:34.773Z,10.22
2023-04-20T18:46:42.729Z,10.18
2023-04-20T18:48:47.157Z,10.15
2023-04-20T18:50:51.534Z,10.13
2023-04-20T18:52:55.685Z,10.08
2023-04-20T18:55:00.176Z,10.07
2023-04-20T18:57:04.780Z,10.04
2023-04-20T18:59:11.274Z,10.01
2023-04-20T19:01:15.417Z,9.98
2023-04-20T19:03:21.654Z,9.94
2023-04-20T19:05:26.394Z,9.92
2023-04-20T19:07:31.009Z,9.88
2023-04-20T19:09:35.269Z,9.86
2023-04-20T19:11:39.516Z,9.82
2023-04-20T19:13:45.493Z,9.79
2023-04-20T19:15:50.930Z,9.77
2023-04-20T19:17:56.642Z,9.74
2023-04-20T19:20:02.657Z,9.71
2023-04-20T19:22:07.160Z,9.66
2023-04-20T19:24:11.580Z,9.62
2023-04-20T19:26:16.389Z,9.58
2023-04-20T19:28:22.169Z,9.57
2023-04-20T19:30:28.291Z,9.55
2023-04-20T19:32:32.833Z,9.53
2023-04-20T19:34:37.834Z,9.49
2023-04-20T19:36:43.918Z,9.47
2023-04-20T19:38:49.861Z,9.46
2023-04-20T19:40:54.582Z,9.45
2023-04-20T19:42:59.463Z,9.44
2023-04-20T19:45:03.660Z,9.43
2023-04-20T19:47:08.667Z,9.41
2023-04-20T19:49:15.080Z,9.38
2023-04-20T19:51:22.679Z,9.37
2023-04-20T19:53:29.582Z,9.36
2023-04-20T19:55:35.359Z,9.33
2023-04-20T19:57:41.292Z,9.31
2023-04-20T19:59:46.920Z,9.29
2023-04-20T20:01:53.853Z,9.27
2023-04-20T20:03:59.581Z,9.24
2023-04-20T20:06:05.812Z,9.22
2023-04-20T20:08:11.570Z,9.21
2023-04-20T20:10:18.312Z,9.18
2023-04-20T20:12:23.917Z,9.17
2023-04-20T20:14:31.264Z,9.17
2023-04-20T20:16:36.990Z,9.17
2023-04-20T20:18:42.133Z,9.16
2023-04-20T20:20:47.916Z,9.15
2023-04-20T20:22:53.458Z,9.14
2023-04-20T20:24:57.591Z,9.13
2023-04-20T20:27:04.745Z,9.12
2023-04-20T20:29:09.884Z,9.12
2023-04-20T20:31:13.998Z,9.12
2023-04-20T20:33:19.694Z,9.10
2023-04-20T20:35:24.520Z,9.10
2023-04-20T20:37:35.259Z,9.09
2023-04-20T20:39:40.134Z,9.07
2023-04-20T20:41:45.185Z,9.05
2023-04-20T20:43:51.895Z,9.04
2023-04-20T20:45:58.772Z,9.01
2023-04-20T20:48:03.675Z,9.00
2023-04-20T20:50:09.108Z,8.99
2023-04-20T20:52:13.804Z,9.00
2023-04-20T20:54:18.917Z,9.00
2023-04-20T20:56:23.289Z,9.01
2023-04-20T20:58:27.537Z,9.02
2023-04-20T21:00:33.732Z,9.02
2023-04-20T21:02:39.410Z,9.00
2023-04-20T21:04:44.471Z,8.99
2023-04-20T21:06:49.351Z,8.99
2023-04-20T21:08:54.946Z,8.99
2023-04-20T21:10:59.762Z,9.00
2023-04-20T21:13:05.100Z,9.00
2023-04-20T21:15:12.935Z,9.00
2023-04-20T21:17:19.432Z,8.97
2023-04-20T21:19:23.671Z,8.95
2023-04-20T21:21:29.617Z,8.94
2023-04-20T21:23:33.258Z,8.93
2023-04-20T21:25:37.070Z,8.92
2023-04-20T21:27:41.918Z,8.90
2023-04-20T21:29:46.368Z,8.90
2023-04-20T21:31:52.293Z,8.90
2023-04-20T21:34:02.028Z,8.90
2023-04-20T21:36:07.041Z,8.90
2023-04-20T21:38:11.457Z,8.90
2023-04-20T21:40:15.915Z,8.87
2023-04-20T21:42:20.472Z,8.86
2023-04-20T21:44:26.976Z,8.84
2023-04-20T21:46:31.283Z,8.83
2023-04-20T21:48:35.864Z,8.80
2023-04-20T21:50:41.819Z,8.79
2023-04-20T21:52:48.756Z,8.77
2023-04-20T21:54:53.584Z,8.75
2023-04-20T21:56:58.704Z,8.76
2023-04-20T21:59:03.125Z,8.74
2023-04-20T22:01:07.871Z,8.75
2023-04-20T22:03:12.635Z,8.72
2023-04-20T22:05:17.415Z,8.72
2023-04-20T22:07:24.163Z,8.70
2023-04-20T22:09:28.998Z,8.68
2023-04-20T22:11:36.785Z,8.65
2023-04-20T22:13:41.332Z,8.63
2023-04-20T22:15:47.590Z,8.59
2023-04-20T22:17:52.225Z,8.56
2023-04-20T22:19:56.739Z,8.53
2023-04-20T22:22:00.829Z,8.51
2023-04-20T22:24:07.228Z,8.50
2023-04-20T22:26:11.525Z,8.50
2023-04-20T22:28:15.805Z,8.49
2023-04-20T22:30:20.550Z,8.49
2023-04-20T22:32:25.386Z,8.48
2023-04-20T22:34:29.950Z,8.46
2023-04-20T22:36:35.484Z,8.46
2023-04-20T22:38:39.984Z,8.45
2023-04-20T22:40:46.341Z,8.45
2023-04-20T22:42:51.124Z,8.46
2023-04-20T22:44:55.484Z,8.44
2023-04-20T22:47:00.134Z,8.42
2023-04-20T22:49:04.503Z,8.42
2023-04-20T22:51:08.802Z,8.38
2023-04-20T22:53:14.244Z,8.36
2023-04-20T22:55:18.609Z,8.35
2023-04-20T22:57:24.596Z,8.33
2023-04-20T22:59:28.756Z,8.33
2023-04-20T23:01:33.104Z,8.31
2023-04-20T23:03:37.687Z,8.31
2023-04-20T23:05:44.709Z,8.29
2023-04-20T23:07:48.831Z,8.32
2023-04-20T23:09:54.143Z,8.31
2023-04-20T23:11:58.951Z,8.29
2023-04-20T23:14:05.008Z,8.29
2023-04-20T23:16:09.872Z,8.31
2023-04-20T23:18:14.414Z,8.28
2023-04-20T23:20:19.743Z,8.29
2023-04-20T23:22:24.112Z,8.27
2023-04-20T23:24:28.763Z,8.24
2023-04-20T23:26:33.344Z,8.23
2023-04-20T23:28:37.602Z,8.23
2023-04-20T23:30:43.600Z,8.21
2023-04-20T23:32:47.689Z,8.19
2023-04-20T23:34:52.051Z,8.19
2023-04-20T23:36:56.829Z,8.18
2023-04-20T23:39:01.127Z,8.17
2023-04-20T23:41:11.053Z,8.14
2023-04-20T23:43:15.468Z,8.12
2023-04-20T23:45:20.244Z,8.11
2023-04-20T23:47:26.187Z,8.10
2023-04-20T23:49:30.498Z,8.11
2023-04-20T23:51:35.105Z,8.10
2023-04-20T23:53:39.824Z,8.08
2023-04-20T23:55:44.423Z,8.08
2023-04-20T23:57:49.163Z,8.06
2023-04-20T23:59:53.389Z,8.05
